createdAt,value
2022-12-01T00:04:25.792Z,77.30
2022-12-01T00:09:47.092Z,77.30
2022-12-01T00:14:55.118Z,77.20
2022-12-01T00:20:00.087Z,77.10
2022-12-01T00:25:03.603Z,77.50
2022-12-01T00:30:09.091Z,77.40
2022-12-01T00:35:14.897Z,77.40
2022-12-01T00:40:18.451Z,77.50
2022-12-01T00:45:22.018Z,77.40
2022-12-01T00:50:27.322Z,77.40
2022-12-01T00:55:30.834Z,77.60
2022-12-01T01:00:34.317Z,77.20
2022-12-01T01:05:40.378Z,77.40
2022-12-01T01:10:45.496Z,77.50
2022-12-01T01:15:58.879Z,77.30
2022-12-01T01:21:06.201Z,77.40
2022-12-01T01:26:11.900Z,77.40
2022-12-01T01:31:17.215Z,77.50
2022-12-01T01:36:22.165Z,77.50
2022-12-01T01:41:25.904Z,77.50
2022-12-01T01:46:30.634Z,77.50
2022-12-01T01:51:40.972Z,77.50
2022-12-01T01:56:45.329Z,77.40
2022-12-01T02:01:50.784Z,77.50
2022-12-01T02:06:56.041Z,77.40
2022-12-01T02:12:11.558Z,77.50
2022-12-01T02:17:27.002Z,77.30
2022-12-01T02:22:39.532Z,77.60
2022-12-01T02:28:05.672Z,77.70
2022-12-01T02:33:17.366Z,77.50
2022-12-01T02:38:26.374Z,77.30
2022-12-01T02:43:33.673Z,77.50
2022-12-01T02:48:40.493Z,77.40
2022-12-01T02:53:44.025Z,77.50
2022-12-01T02:58:47.488Z,77.30
2022-12-01T03:04:17.197Z,77.30
2022-12-01T03:09:28.563Z,77.40
2022-12-01T03:14:38.826Z,77.50
2022-12-01T03:19:45.846Z,77.30
2022-12-01T03:24:49.897Z,77.30
2022-12-01T03:29:56.042Z,77.30
2022-12-01T03:35:04.951Z,77.10
2022-12-01T03:40:11.915Z,77.20
2022-12-01T03:45:17.997Z,77.10
2022-12-01T03:50:22.868Z,77.10
2022-12-01T03:55:28.943Z,77.00
2022-12-01T04:00:32.781Z,77.10
2022-12-01T04:05:37.740Z,76.90
2022-12-01T04:10:41.172Z,77.10
2022-12-01T04:15:44.711Z,76.90
2022-12-01T04:20:50.150Z,76.90
2022-12-01T04:26:00.081Z,77.00
2022-12-01T04:31:03.628Z,76.80
2022-12-01T04:36:09.623Z,77.00
2022-12-01T04:41:13.827Z,77.20
2022-12-01T04:46:17.360Z,76.90
2022-12-01T04:51:22.572Z,76.90
2022-12-01T04:56:26.109Z,76.80
2022-12-01T05:01:29.644Z,76.70
2022-12-01T05:06:34.618Z,76.70
2022-12-01T05:11:38.809Z,76.70
2022-12-01T05:16:42.412Z,76.70
2022-12-01T05:21:48.322Z,76.60
2022-12-01T05:26:51.791Z,76.70
2022-12-01T05:31:55.377Z,76.60
2022-12-01T05:37:00.279Z,76.60
2022-12-01T05:42:03.782Z,76.70
2022-12-01T05:47:07.380Z,76.60
2022-12-01T05:52:12.282Z,76.50
2022-12-01T05:57:15.766Z,76.40
2022-12-01T06:02:19.324Z,76.40
2022-12-01T06:07:26.171Z,76.40
2022-12-01T06:12:30.094Z,76.40
2022-12-01T06:17:38.650Z,76.40
2022-12-01T06:22:44.934Z,76.60
2022-12-01T06:27:48.432Z,76.50
2022-12-01T06:32:51.913Z,76.40
2022-12-01T06:37:56.808Z,76.30
2022-12-01T06:43:01.876Z,76.50
2022-12-01T06:48:05.483Z,76.50
2022-12-01T06:53:11.489Z,76.40
2022-12-01T06:58:14.910Z,76.40
2022-12-01T07:03:18.753Z,76.40
2022-12-01T07:08:23.557Z,76.60
2022-12-01T07:13:32.851Z,76.50
2022-12-01T07:18:38.830Z,76.60
2022-12-01T07:23:43.885Z,76.50
2022-12-01T07:28:47.622Z,76.50
2022-12-01T07:33:51.149Z,76.40
2022-12-01T07:38:55.986Z,76.30
2022-12-01T07:44:01.126Z,76.50
2022-12-01T07:49:07.119Z,76.30
2022-12-01T07:54:14.446Z,76.30
2022-12-01T07:59:17.941Z,76.40
2022-12-01T08:04:21.483Z,76.20
2022-12-01T08:09:26.431Z,76.30
2022-12-01T08:14:29.970Z,76.40
2022-12-01T08:19:33.505Z,76.40
2022-12-01T08:24:38.631Z,76.40
2022-12-01T08:29:42.062Z,76.50
2022-12-01T08:34:51.874Z,76.40
2022-12-01T08:39:58.183Z,76.40
2022-12-01T08:45:01.747Z,76.30
2022-12-01T08:50:06.498Z,76.40
2022-12-01T08:55:11.669Z,76.40
2022-12-01T09:00:16.274Z,76.50
2022-12-01T09:05:19.770Z,76.30
2022-12-01T09:10:24.712Z,76.40
2022-12-01T09:15:28.199Z,76.30
2022-12-01T09:20:31.674Z,76.40
2022-12-01T09:25:36.661Z,76.40
2022-12-01T09:30:40.220Z,76.30
2022-12-01T09:35:43.697Z,76.50
2022-12-01T09:40:48.610Z,76.60
2022-12-01T09:45:55.662Z,76.50
2022-12-01T09:50:59.513Z,76.70
2022-12-01T09:56:10.024Z,76.50
2022-12-01T10:01:17.157Z,76.60
2022-12-01T10:06:27.870Z,76.70
2022-12-01T10:11:36.150Z,76.90
2022-12-01T10:16:46.263Z,76.80
2022-12-01T10:22:00.741Z,76.80
2022-12-01T10:27:13.358Z,77.00
2022-12-01T10:32:19.827Z,77.10
2022-12-01T10:37:26.039Z,77.20
2022-12-01T10:42:37.853Z,77.10
2022-12-01T10:48:11.693Z,77.20
2022-12-01T10:53:30.144Z,77.20
2022-12-01T10:58:35.935Z,77.30
2022-12-01T11:03:39.995Z,77.40
2022-12-01T11:08:47.190Z,77.60
2022-12-01T11:13:52.113Z,77.60
2022-12-01T11:19:09.215Z,77.70
2022-12-01T11:24:26.691Z,77.70
2022-12-01T11:29:37.416Z,77.50
2022-12-01T11:34:40.993Z,77.70
2022-12-01T11:39:46.160Z,77.70
2022-12-01T11:44:52.763Z,77.60
2022-12-01T11:49:58.901Z,77.60
2022-12-01T11:55:10.292Z,77.70
2022-12-01T12:00:17.333Z,77.60
2022-12-01T12:05:45.690Z,77.50
2022-12-01T12:10:55.489Z,77.60
2022-12-01T12:16:06.476Z,77.70
2022-12-01T12:21:16.797Z,77.70
2022-12-01T12:26:21.957Z,77.40
2022-12-01T12:31:31.267Z,77.50
2022-12-01T12:36:41.678Z,77.50
2022-12-01T12:41:47.303Z,77.40
2022-12-01T12:46:58.470Z,77.50
2022-12-01T12:52:08.328Z,77.70
2022-12-01T12:57:24.413Z,77.50
2022-12-01T13:02:34.208Z,77.60
2022-12-01T13:07:42.835Z,77.50
2022-12-01T13:12:54.923Z,77.30
2022-12-01T13:18:04.872Z,77.00
2022-12-01T13:23:10.517Z,77.50
2022-12-01T13:28:18.998Z,77.30
2022-12-01T13:33:24.145Z,77.40
2022-12-01T13:38:30.505Z,77.20
2022-12-01T13:43:34.177Z,77.40
2022-12-01T13:48:54.115Z,77.30
2022-12-01T13:54:05.458Z,77.20
2022-12-01T13:59:42.977Z,77.30
2022-12-01T14:04:48.057Z,77.10
2022-12-01T14:09:53.160Z,77.10
2022-12-01T14:15:00.982Z,77.20
2022-12-01T14:20:09.996Z,77.00
2022-12-01T14:25:27.142Z,76.80
2022-12-01T14:31:03.798Z,77.00
2022-12-01T14:36:11.175Z,77.00
2022-12-01T14:41:22.789Z,76.80
2022-12-01T14:46:28.078Z,77.00
2022-12-01T14:51:34.628Z,76.90
2022-12-01T14:56:39.178Z,77.00
2022-12-01T15:01:42.761Z,76.70
2022-12-01T15:06:47.888Z,76.60
2022-12-01T15:11:53.809Z,76.70
2022-12-01T15:16:57.494Z,76.80
2022-12-01T15:22:06.551Z,76.80
2022-12-01T15:27:25.776Z,76.80
2022-12-01T15:32:29.984Z,76.60
2022-12-01T15:37:42.242Z,76.60
2022-12-01T15:42:45.783Z,76.50
2022-12-01T15:47:50.164Z,76.50
2022-12-01T15:52:54.988Z,76.60
2022-12-01T15:57:58.852Z,76.30
2022-12-01T16:03:02.799Z,76.40
2022-12-01T16:08:17.159Z,76.60
2022-12-01T16:13:45.923Z,76.40
2022-12-01T16:18:54.200Z,76.40
2022-12-01T16:24:06.825Z,76.40
2022-12-01T16:29:20.069Z,76.30
2022-12-01T16:34:44.553Z,76.30
2022-12-01T16:39:49.647Z,76.50
2022-12-01T16:44:53.623Z,76.40
2022-12-01T16:49:57.221Z,76.40
2022-12-01T16:55:02.014Z,76.40
2022-12-01T17:00:06.162Z,76.20
2022-12-01T17:05:10.930Z,76.40
2022-12-01T17:10:15.907Z,76.40
2022-12-01T17:15:19.718Z,76.30
2022-12-01T17:20:23.089Z,76.20
2022-12-01T17:25:27.908Z,76.40
2022-12-01T17:30:31.348Z,76.30
2022-12-01T17:35:35.174Z,76.40
2022-12-01T17:40:39.990Z,76.10
2022-12-01T17:45:44.460Z,76.30
2022-12-01T17:50:47.838Z,76.10
2022-12-01T17:55:52.631Z,76.00
2022-12-01T18:00:56.405Z,76.30
2022-12-01T18:06:01.059Z,76.30
2022-12-01T18:11:08.291Z,76.20
2022-12-01T18:16:13.444Z,76.10
2022-12-01T18:21:19.457Z,76.40
2022-12-01T18:26:24.950Z,76.30
2022-12-01T18:31:29.381Z,75.80
2022-12-01T18:36:34.358Z,76.00
2022-12-01T18:41:39.215Z,75.90
2022-12-01T18:46:42.798Z,75.90
2022-12-01T18:51:46.261Z,75.90
2022-12-01T18:56:55.152Z,75.60
2022-12-01T19:01:58.589Z,75.80
2022-12-01T19:07:02.088Z,75.70
2022-12-01T19:12:07.548Z,75.80
2022-12-01T19:17:10.977Z,75.60
2022-12-01T19:22:14.370Z,75.80
2022-12-01T19:27:19.302Z,75.40
2022-12-01T19:32:22.820Z,75.70
2022-12-01T19:37:26.255Z,75.50
2022-12-01T19:42:31.051Z,75.30
2022-12-01T19:47:35.076Z,75.40
2022-12-01T19:52:41.400Z,75.50
2022-12-01T19:57:46.185Z,75.40
2022-12-01T20:02:49.641Z,75.70
2022-12-01T20:07:53.271Z,75.40
2022-12-01T20:12:58.216Z,75.30
2022-12-01T20:18:01.611Z,75.50
2022-12-01T20:23:04.974Z,75.60
2022-12-01T20:28:09.756Z,75.40
2022-12-01T20:33:13.159Z,75.40
2022-12-01T20:38:16.611Z,75.30
2022-12-01T20:43:21.466Z,75.00
2022-12-01T20:48:24.846Z,75.30
2022-12-01T20:53:28.388Z,75.40
2022-12-01T20:58:37.483Z,75.40
2022-12-01T21:03:42.647Z,75.40
2022-12-01T21:08:47.979Z,75.00
2022-12-01T21:13:54.098Z,75.10
2022-12-01T21:19:01.197Z,75.20
2022-12-01T21:24:13.622Z,75.20
2022-12-01T21:29:24.928Z,75.00
2022-12-01T21:34:29.611Z,74.70
2022-12-01T21:39:33.304Z,75.10
2022-12-01T21:44:39.554Z,74.90
2022-12-01T21:49:44.654Z,74.80
2022-12-01T21:54:48.430Z,74.90
2022-12-01T21:59:55.549Z,75.00
2022-12-01T22:05:00.399Z,74.90
2022-12-01T22:10:22.353Z,75.00
2022-12-01T22:15:34.170Z,75.00
2022-12-01T22:20:37.616Z,75.10
2022-12-01T22:25:42.687Z,74.80
2022-12-01T22:30:47.536Z,74.90
2022-12-01T22:35:52.100Z,74.70
2022-12-01T22:40:58.184Z,75.10
2022-12-01T22:46:32.716Z,74.80
2022-12-01T22:51:43.495Z,74.80
2022-12-01T22:56:48.408Z,74.70
2022-12-01T23:01:54.655Z,74.90
2022-12-01T23:07:03.778Z,75.00
2022-12-01T23:12:22.597Z,74.80
2022-12-01T23:17:29.122Z,75.10
2022-12-01T23:22:32.571Z,75.20
2022-12-01T23:27:35.999Z,74.80
2022-12-01T23:32:40.947Z,74.90
2022-12-01T23:37:45.675Z,75.00
2022-12-01T23:42:49.165Z,75.00
2022-12-01T23:47:54.770Z,75.00
2022-12-01T23:52:58.541Z,75.00
2022-12-01T23:58:14.826Z,75.00
